x

Diamond Shoals (41025) Wave Buoy

1:50pm - Tue 16th Sep 2014 All times are EDT. -4 hours from GMT.

  • Sig Wave height 2.0ft
  • Swell Direction
  • Peak Period 7s
  • Average Period 6s
  • Wind
    7mph, 9mph gusts
  • Air Temp 76°f
  • Sea Pressure 1015.6mb
  • Diamond Shoals
  • Diamond Shoals

More Historic Weather Station data

Upgrade to MSW Pro to gain access to the past 30 days of data for over 8000 Wavebouys and Weather Stations around the globe.

Join Pro

Comparision Forecast

View Surf forecast
   
Tue 09/16 1:50pm 2ft 7s 6s 7 9 mph 1015.6mb 76f
12:50pm 2.5ft 7s 6s 7 9 mph 1016.1mb 76f
11:50am 2.5ft 8s 6s 4 9 mph 1016.5mb 76f
10:50am 2.5ft 8s 6s 4
mph
1017.1mb 76f
9:50am 2ft 8s 6s 7 9 mph 1017.3mb 76f
8:50am 2.5ft 7s 6s 9 11 mph 1017.4mb 76f
7:50am 2.5ft 8s 6s 11 13 mph 1017.6mb 76f
6:50am 2.5ft 8s 6s 7 11 mph 1017.5mb 76f
5:50am 2.5ft 7s 6s 7 11 mph 1017.4mb 75f
4:50am 2.5ft 8s 6s 7 9 mph 1017.3mb 74f
3:50am 2.5ft 8s 6s 4 7 mph 1017.1mb 74f
2:50am 2.5ft 8s 6s 4 7 mph 1017.9mb 74f
1:50am 3ft 8s 6s 2
mph
1018.5mb 74f
12:50am 3ft 8s 6s 7 9 mph 1019.2mb 73f
Mon 09/15 11:50pm 3.5ft 8s 6s 9 11 mph 1019.9mb 73f
10:50pm 3.5ft 8s 6s 11 13 mph 1020.1mb 73f
9:50pm 3ft 8s 6s 11 13 mph 1020.1mb 73f
8:50pm 3.5ft 8s 6s 9 13 mph 1019.9mb 73f
7:50pm 3ft 8s 5s 11 16 mph 1019.4mb 73f
6:50pm 3.5ft 8s 5s 11 16 mph 1019.5mb 74f
5:50pm 3.5ft 8s 6s 11 13 mph 1019.9mb 74f
4:50pm 3.5ft 8s 6s 13 16 mph 1020.2mb 74f
3:50pm 3.5ft 8s 6s 11 16 mph 1020.2mb 74f
2:50pm 4ft 8s 6s 13 16 mph 1020.5mb 74f
1:50pm 4ft 7s 6s 13 18 mph 1021.1mb 74f
12:50pm 4.5ft 8s 6s 16 20 mph 1021.7mb 74f
11:50am 4.5ft 8s 6s 16 20 mph 1022.2mb 74f
10:50am 4.5ft 8s 6s 16 20 mph 1022.1mb 74f
9:50am 4.5ft 8s 6s 18 22 mph 1021.8mb 74f
8:50am 4ft 8s 5s 18 22 mph 1021.8mb 74f
7:50am 4ft 7s 5s 18 25 mph 1021.9mb 74f
6:50am 3.5ft 8s 5s 18 22 mph 1021.7mb 72f
5:50am 3.5ft 8s 5s 18 20 mph 1021.2mb 72f
4:50am 3.5ft 8s 5s 18 20 mph 1020.8mb 72f
3:50am 3.5ft 8s 5s 16 20 mph 1020.7mb 72f
2:50am 4ft 9s 5s 16 22 mph 1020.8mb 72f
1:50am 3.5ft 7s 5s 16 20 mph 1020.9mb 73f
12:50am 4ft 8s 5s 16 18 mph 1021mb 73f
Sun 09/14 11:50pm 4ft 8s 5s 16 20 mph 1021mb 73f
10:50pm 4ft 7s 5s 16 20 mph 1021.3mb 73f
9:50pm 4ft 8s 5s 18 22 mph 1021.4mb 73f
8:50pm 4ft 8s 5s 20 25 mph 1021.5mb 73f
7:50pm 4.5ft 7s 5s 22 27 mph 1020.9mb 73f
6:50pm 4ft 7s 5s 20 25 mph 1021.1mb 74f
5:50pm 4.5ft 8s 5s 20 25 mph 1021.2mb 74f
4:50pm 4ft 4s 4s 22 27 mph 1020.6mb 74f
3:50pm 4ft 7s 4s 22 27 mph 1020.7mb 74f
2:50pm 4ft 5s 4s 22 25 mph 1020.6mb 75f
1:50pm 4ft 5s 4s 20 25 mph 1021.1mb 75f
12:50pm 4ft 8s 5s 20 25 mph 1021.4mb 75f
11:50am 4ft 5s 5s 18 22 mph 1022mb 75f
10:50am 4.5ft 6s 5s 18 22 mph 1022.3mb 75f
9:50am 4.5ft 6s 5s 22 27 mph 1021.6mb 74f
8:50am 4.5ft 6s 5s 22 27 mph 1021.5mb 74f
7:50am 4ft 5s 5s 20 25 mph 1021.1mb 75f
6:50am 4.5ft 6s 5s 20 25 mph 1020.7mb 73f
5:50am 4ft 5s 4s 20 25 mph 1019.6mb 74f
4:50am 3.5ft 5s 4s 20 25 mph 1019.3mb 74f
3:50am 3.5ft 5s 4s 20 22 mph 1019.6mb 74f
2:50am 3ft 4s 4s 22 27 mph 1018.8mb 75f
1:50am 2.5ft 8s 4s 18 20 mph 1019.1mb 77f
12:50am 2.5ft 7s 4s 16 20 mph 1019.1mb 77f
Sat 09/13 11:50pm 2ft 8s 5s 16 18 mph 1019.3mb 77f
10:50pm 2ft 8s 6s 11 13 mph 1019.5mb 80f
9:50pm 2.5ft 8s 6s 9 11 mph 1019.1mb 80f
8:50pm 2.5ft 8s 6s 9 11 mph 1018.8mb 80f
7:50pm 2.5ft 7s 6s 9 11 mph 1018.4mb 80f
6:50pm 2.5ft 8s 6s 11
mph
1017.9mb 81f
5:50pm 2.5ft 8s 6s 7 9 mph 1017.9mb 82f
4:50pm 2.5ft 8s 6s 7 9 mph 1018mb 82f
3:50pm 2.5ft 8s 6s 9
mph
1017.6mb 81f
2:50pm 2.5ft 8s 6s 7 9 mph 1017.8mb 81f
1:50pm 2.5ft 8s 6s 4 7 mph 1018.4mb 81f
12:50pm 2.5ft 8s 6s 4 7 mph 1018.8mb 80f
11:50am 2.5ft 8s 6s  -  2 mph 1018.9mb 80f
10:50am 2ft 8s 6s 2
mph
1019mb 79f
9:50am 2ft 7s 6s  -  2 mph 1018.9mb 78f
8:50am 2ft 8s 6s 2 7 mph 1018.7mb 78f
7:50am 2.5ft 8s 6s 9 11 mph 1018.2mb 78f
6:50am 2.5ft 9s 5s 9 11 mph 1017.9mb 77f
5:50am 2.5ft 7s 5s 9 11 mph 1017.5mb 77f
4:50am 2.5ft 6s 5s 11 13 mph 1017.1mb 77f
3:50am 3ft 6s 5s 11 16 mph 1016.8mb 77f
2:50am 2.5ft 6s 5s 13 16 mph 1016.7mb 77f
1:50am 2.5ft 6s 5s 13 16 mph 1017mb 77f
12:50am 2.5ft 6s 5s 13 16 mph 1017.6mb 77f
Fri 09/12 11:50pm 2.5ft 8s 4s 13 16 mph 1017.5mb 77f
10:50pm 2.5ft 8s 5s 11 13 mph 1018.2mb 77f
9:50pm 2ft 8s 4s 9 11 mph 1018mb 77f
8:50pm 2ft 8s 5s 11 13 mph 1017.7mb 77f
7:50pm 2.5ft 8s 5s 11 13 mph 1017mb 77f